sensor_id;sensor_type;location;lat;lon;timestamp;P1;durP1;ratioP1;P2;durP2;ratioP2
17451;SDS011;8843;48.838;9.324;2023-04-25T00:00:25;2.37;;;1.60;;
17451;SDS011;8843;48.838;9.324;2023-04-25T00:02:52;1.50;;;1.40;;
17451;SDS011;8843;48.838;9.324;2023-04-25T00:05:20;1.63;;;1.53;;
17451;SDS011;8843;48.838;9.324;2023-04-25T00:07:48;1.80;;;1.40;;
17451;SDS011;8843;48.838;9.324;2023-04-25T00:10:15;1.70;;;1.60;;
17451;SDS011;8843;48.838;9.324;2023-04-25T00:12:42;3.10;;;1.80;;
17451;SDS011;8843;48.838;9.324;2023-04-25T00:15:09;1.90;;;1.40;;
17451;SDS011;8843;48.838;9.324;2023-04-25T00:17:38;1.87;;;1.50;;
17451;SDS011;8843;48.838;9.324;2023-04-25T00:20:05;1.67;;;1.50;;
17451;SDS011;8843;48.838;9.324;2023-04-25T00:22:34;1.80;;;1.60;;
17451;SDS011;8843;48.838;9.324;2023-04-25T00:25:02;4.77;;;1.80;;
17451;SDS011;8843;48.838;9.324;2023-04-25T00:27:30;2.50;;;1.83;;
17451;SDS011;8843;48.838;9.324;2023-04-25T00:29:57;1.70;;;1.60;;
17451;SDS011;8843;48.838;9.324;2023-04-25T00:32:24;3.07;;;1.60;;
17451;SDS011;8843;48.838;9.324;2023-04-25T00:34:53;2.97;;;1.70;;
17451;SDS011;8843;48.838;9.324;2023-04-25T00:37:20;1.80;;;1.70;;
17451;SDS011;8843;48.838;9.324;2023-04-25T00:39:47;1.73;;;1.63;;
17451;SDS011;8843;48.838;9.324;2023-04-25T00:42:14;2.27;;;1.37;;
17451;SDS011;8843;48.838;9.324;2023-04-25T00:44:42;1.50;;;1.40;;
17451;SDS011;8843;48.838;9.324;2023-04-25T00:47:09;3.37;;;1.63;;
17451;SDS011;8843;48.838;9.324;2023-04-25T00:49:37;1.80;;;1.70;;
17451;SDS011;8843;48.838;9.324;2023-04-25T00:52:05;1.70;;;1.60;;
17451;SDS011;8843;48.838;9.324;2023-04-25T00:54:32;2.97;;;1.70;;
17451;SDS011;8843;48.838;9.324;2023-04-25T00:56:59;1.70;;;1.60;;
17451;SDS011;8843;48.838;9.324;2023-04-25T00:59:27;2.13;;;1.40;;
17451;SDS011;8843;48.838;9.324;2023-04-25T01:01:54;1.80;;;1.57;;
17451;SDS011;8843;48.838;9.324;2023-04-25T01:04:22;2.43;;;1.77;;
17451;SDS011;8843;48.838;9.324;2023-04-25T01:06:49;2.90;;;1.70;;
17451;SDS011;8843;48.838;9.324;2023-04-25T01:09:17;1.50;;;1.40;;
17451;SDS011;8843;48.838;9.324;2023-04-25T01:11:45;1.70;;;1.50;;
17451;SDS011;8843;48.838;9.324;2023-04-25T01:14:12;2.13;;;1.37;;
17451;SDS011;8843;48.838;9.324;2023-04-25T01:16:39;2.47;;;1.53;;
17451;SDS011;8843;48.838;9.324;2023-04-25T01:19:06;1.37;;;1.27;;
17451;SDS011;8843;48.838;9.324;2023-04-25T01:21:38;1.80;;;1.70;;
17451;SDS011;8843;48.838;9.324;2023-04-25T01:24:05;1.47;;;1.30;;
17451;SDS011;8843;48.838;9.324;2023-04-25T01:26:33;4.10;;;1.40;;
17451;SDS011;8843;48.838;9.324;2023-04-25T01:29:01;1.80;;;1.60;;
17451;SDS011;8843;48.838;9.324;2023-04-25T01:31:28;1.73;;;1.33;;
17451;SDS011;8843;48.838;9.324;2023-04-25T01:33:56;2.07;;;1.70;;
17451;SDS011;8843;48.838;9.324;2023-04-25T01:36:23;1.60;;;1.43;;
17451;SDS011;8843;48.838;9.324;2023-04-25T01:38:51;1.87;;;1.50;;
17451;SDS011;8843;48.838;9.324;2023-04-25T01:41:18;1.50;;;1.40;;
17451;SDS011;8843;48.838;9.324;2023-04-25T01:43:48;2.80;;;1.60;;
17451;SDS011;8843;48.838;9.324;2023-04-25T01:46:16;2.70;;;1.70;;
17451;SDS011;8843;48.838;9.324;2023-04-25T01:48:43;2.33;;;1.73;;
17451;SDS011;8843;48.838;9.324;2023-04-25T01:51:10;2.40;;;1.60;;
17451;SDS011;8843;48.838;9.324;2023-04-25T01:53:37;2.20;;;1.70;;
17451;SDS011;8843;48.838;9.324;2023-04-25T01:56:06;2.80;;;1.40;;
17451;SDS011;8843;48.838;9.324;2023-04-25T01:58:33;1.87;;;1.50;;
17451;SDS011;8843;48.838;9.324;2023-04-25T02:01:00;1.70;;;1.60;;
17451;SDS011;8843;48.838;9.324;2023-04-25T02:03:27;2.10;;;1.53;;
17451;SDS011;8843;48.838;9.324;2023-04-25T02:05:53;2.33;;;1.80;;
17451;SDS011;8843;48.838;9.324;2023-04-25T02:08:20;2.70;;;1.90;;
17451;SDS011;8843;48.838;9.324;2023-04-25T02:10:47;1.90;;;1.70;;
17451;SDS011;8843;48.838;9.324;2023-04-25T02:13:16;2.53;;;1.80;;
17451;SDS011;8843;48.838;9.324;2023-04-25T02:15:42;2.23;;;1.30;;
17451;SDS011;8843;48.838;9.324;2023-04-25T02:18:09;2.63;;;1.47;;
17451;SDS011;8843;48.838;9.324;2023-04-25T02:20:36;1.80;;;1.70;;
17451;SDS011;8843;48.838;9.324;2023-04-25T02:23:03;1.73;;;1.50;;
17451;SDS011;8843;48.838;9.324;2023-04-25T02:25:30;1.47;;;1.37;;
17451;SDS011;8843;48.838;9.324;2023-04-25T02:27:57;2.63;;;1.73;;
17451;SDS011;8843;48.838;9.324;2023-04-25T02:30:25;2.20;;;1.47;;
17451;SDS011;8843;48.838;9.324;2023-04-25T02:32:52;1.70;;;1.60;;
17451;SDS011;8843;48.838;9.324;2023-04-25T02:35:19;1.60;;;1.50;;
17451;SDS011;8843;48.838;9.324;2023-04-25T02:37:46;2.57;;;1.97;;
17451;SDS011;8843;48.838;9.324;2023-04-25T02:40:12;2.10;;;1.47;;
17451;SDS011;8843;48.838;9.324;2023-04-25T02:42:39;1.60;;;1.50;;
17451;SDS011;8843;48.838;9.324;2023-04-25T02:45:07;3.73;;;1.60;;
17451;SDS011;8843;48.838;9.324;2023-04-25T02:47:36;3.37;;;2.10;;
17451;SDS011;8843;48.838;9.324;2023-04-25T02:50:03;3.07;;;1.70;;
17451;SDS011;8843;48.838;9.324;2023-04-25T02:52:30;1.53;;;1.37;;
17451;SDS011;8843;48.838;9.324;2023-04-25T02:54:57;2.30;;;1.77;;
17451;SDS011;8843;48.838;9.324;2023-04-25T02:57:24;2.10;;;1.90;;
17451;SDS011;8843;48.838;9.324;2023-04-25T02:59:51;2.90;;;1.93;;
17451;SDS011;8843;48.838;9.324;2023-04-25T03:02:18;2.00;;;1.70;;
17451;SDS011;8843;48.838;9.324;2023-04-25T03:04:46;2.20;;;2.00;;
17451;SDS011;8843;48.838;9.324;2023-04-25T03:07:14;2.60;;;2.10;;
17451;SDS011;8843;48.838;9.324;2023-04-25T03:09:40;3.27;;;2.20;;
17451;SDS011;8843;48.838;9.324;2023-04-25T03:12:07;3.13;;;1.77;;
17451;SDS011;8843;48.838;9.324;2023-04-25T03:14:35;3.27;;;1.97;;
17451;SDS011;8843;48.838;9.324;2023-04-25T03:17:02;3.03;;;1.87;;
17451;SDS011;8843;48.838;9.324;2023-04-25T03:19:29;1.70;;;1.53;;
17451;SDS011;8843;48.838;9.324;2023-04-25T03:21:57;2.50;;;2.10;;
17451;SDS011;8843;48.838;9.324;2023-04-25T03:24:24;2.00;;;1.90;;
17451;SDS011;8843;48.838;9.324;2023-04-25T03:26:52;2.20;;;1.90;;
17451;SDS011;8843;48.838;9.324;2023-04-25T03:29:18;2.30;;;2.10;;
17451;SDS011;8843;48.838;9.324;2023-04-25T03:31:49;2.10;;;1.90;;
17451;SDS011;8843;48.838;9.324;2023-04-25T03:34:16;1.87;;;1.53;;
17451;SDS011;8843;48.838;9.324;2023-04-25T03:36:43;3.07;;;2.00;;
17451;SDS011;8843;48.838;9.324;2023-04-25T03:39:11;2.00;;;1.90;;
17451;SDS011;8843;48.838;9.324;2023-04-25T03:41:38;3.43;;;2.20;;
17451;SDS011;8843;48.838;9.324;2023-04-25T03:44:05;3.33;;;2.70;;
17451;SDS011;8843;48.838;9.324;2023-04-25T03:46:32;2.87;;;2.13;;
17451;SDS011;8843;48.838;9.324;2023-04-25T03:48:58;2.57;;;2.20;;
17451;SDS011;8843;48.838;9.324;2023-04-25T03:51:25;2.67;;;2.17;;
17451;SDS011;8843;48.838;9.324;2023-04-25T03:53:52;3.13;;;2.37;;
17451;SDS011;8843;48.838;9.324;2023-04-25T03:56:20;2.40;;;2.20;;
17451;SDS011;8843;48.838;9.324;2023-04-25T03:58:47;3.07;;;1.97;;
17451;SDS011;8843;48.838;9.324;2023-04-25T04:01:14;2.40;;;2.20;;
17451;SDS011;8843;48.838;9.324;2023-04-25T04:03:41;2.60;;;1.83;;
17451;SDS011;8843;48.838;9.324;2023-04-25T04:06:08;2.43;;;1.87;;
17451;SDS011;8843;48.838;9.324;2023-04-25T04:08:35;3.73;;;1.87;;
17451;SDS011;8843;48.838;9.324;2023-04-25T04:11:02;2.53;;;2.13;;
17451;SDS011;8843;48.838;9.324;2023-04-25T04:13:31;1.90;;;1.80;;
17451;SDS011;8843;48.838;9.324;2023-04-25T04:15:58;2.40;;;2.20;;
17451;SDS011;8843;48.838;9.324;2023-04-25T04:18:25;3.03;;;2.33;;
17451;SDS011;8843;48.838;9.324;2023-04-25T04:20:52;2.67;;;1.90;;
17451;SDS011;8843;48.838;9.324;2023-04-25T04:23:19;2.53;;;2.10;;
17451;SDS011;8843;48.838;9.324;2023-04-25T04:25:47;2.87;;;2.33;;
17451;SDS011;8843;48.838;9.324;2023-04-25T04:28:14;3.37;;;2.20;;
17451;SDS011;8843;48.838;9.324;2023-04-25T04:30:44;2.70;;;2.40;;
17451;SDS011;8843;48.838;9.324;2023-04-25T04:33:12;3.03;;;2.40;;
17451;SDS011;8843;48.838;9.324;2023-04-25T04:35:40;3.60;;;2.40;;
17451;SDS011;8843;48.838;9.324;2023-04-25T04:38:08;2.60;;;2.40;;
17451;SDS011;8843;48.838;9.324;2023-04-25T04:40:35;4.00;;;2.63;;
17451;SDS011;8843;48.838;9.324;2023-04-25T04:43:03;3.20;;;2.40;;
17451;SDS011;8843;48.838;9.324;2023-04-25T04:45:30;3.00;;;2.53;;
17451;SDS011;8843;48.838;9.324;2023-04-25T04:47:59;3.77;;;2.80;;
17451;SDS011;8843;48.838;9.324;2023-04-25T04:50:27;3.27;;;2.50;;
17451;SDS011;8843;48.838;9.324;2023-04-25T04:52:54;3.40;;;2.60;;
17451;SDS011;8843;48.838;9.324;2023-04-25T04:55:21;3.07;;;2.37;;
17451;SDS011;8843;48.838;9.324;2023-04-25T04:57:47;2.57;;;2.37;;
17451;SDS011;8843;48.838;9.324;2023-04-25T05:00:15;3.47;;;2.73;;
17451;SDS011;8843;48.838;9.324;2023-04-25T05:02:43;2.60;;;2.40;;
17451;SDS011;8843;48.838;9.324;2023-04-25T05:05:11;5.73;;;2.50;;
17451;SDS011;8843;48.838;9.324;2023-04-25T05:07:38;2.63;;;2.30;;
17451;SDS011;8843;48.838;9.324;2023-04-25T05:10:06;3.13;;;2.63;;
17451;SDS011;8843;48.838;9.324;2023-04-25T05:12:34;4.50;;;2.37;;
17451;SDS011;8843;48.838;9.324;2023-04-25T05:15:00;2.80;;;2.20;;
17451;SDS011;8843;48.838;9.324;2023-04-25T05:17:27;6.53;;;2.50;;
17451;SDS011;8843;48.838;9.324;2023-04-25T05:19:54;2.67;;;2.30;;
17451;SDS011;8843;48.838;9.324;2023-04-25T05:22:22;5.33;;;2.10;;
17451;SDS011;8843;48.838;9.324;2023-04-25T05:24:49;4.57;;;2.20;;
17451;SDS011;8843;48.838;9.324;2023-04-25T05:27:17;2.50;;;2.27;;
17451;SDS011;8843;48.838;9.324;2023-04-25T05:29:44;3.53;;;2.23;;
17451;SDS011;8843;48.838;9.324;2023-04-25T05:32:12;2.70;;;2.47;;
17451;SDS011;8843;48.838;9.324;2023-04-25T05:34:41;2.80;;;2.30;;
17451;SDS011;8843;48.838;9.324;2023-04-25T05:37:08;2.77;;;2.57;;
17451;SDS011;8843;48.838;9.324;2023-04-25T05:39:36;5.07;;;2.63;;
17451;SDS011;8843;48.838;9.324;2023-04-25T05:42:03;2.87;;;2.50;;
17451;SDS011;8843;48.838;9.324;2023-04-25T05:44:30;3.77;;;2.30;;
17451;SDS011;8843;48.838;9.324;2023-04-25T05:46:57;5.57;;;2.90;;
17451;SDS011;8843;48.838;9.324;2023-04-25T05:49:24;3.77;;;2.87;;
17451;SDS011;8843;48.838;9.324;2023-04-25T05:51:51;7.83;;;2.70;;
17451;SDS011;8843;48.838;9.324;2023-04-25T05:54:17;3.33;;;2.40;;
17451;SDS011;8843;48.838;9.324;2023-04-25T05:56:46;4.33;;;2.80;;
17451;SDS011;8843;48.838;9.324;2023-04-25T05:59:13;3.30;;;2.60;;
17451;SDS011;8843;48.838;9.324;2023-04-25T06:01:41;3.50;;;2.57;;
17451;SDS011;8843;48.838;9.324;2023-04-25T06:04:08;3.37;;;3.13;;
17451;SDS011;8843;48.838;9.324;2023-04-25T06:06:35;3.67;;;3.03;;
17451;SDS011;8843;48.838;9.324;2023-04-25T06:09:02;4.73;;;2.63;;
17451;SDS011;8843;48.838;9.324;2023-04-25T06:11:29;3.50;;;2.80;;
17451;SDS011;8843;48.838;9.324;2023-04-25T06:13:57;3.93;;;3.53;;
17451;SDS011;8843;48.838;9.324;2023-04-25T06:16:24;3.10;;;2.80;;
17451;SDS011;8843;48.838;9.324;2023-04-25T06:18:51;4.50;;;3.50;;
17451;SDS011;8843;48.838;9.324;2023-04-25T06:21:18;3.30;;;3.00;;
17451;SDS011;8843;48.838;9.324;2023-04-25T06:23:45;3.23;;;2.93;;
17451;SDS011;8843;48.838;9.324;2023-04-25T06:26:12;3.30;;;3.00;;
17451;SDS011;8843;48.838;9.324;2023-04-25T06:28:39;3.70;;;3.33;;
17451;SDS011;8843;48.838;9.324;2023-04-25T06:31:07;3.17;;;2.83;;
17451;SDS011;8843;48.838;9.324;2023-04-25T06:33:34;4.20;;;2.80;;
17451;SDS011;8843;48.838;9.324;2023-04-25T06:36:01;3.07;;;2.77;;
17451;SDS011;8843;48.838;9.324;2023-04-25T06:38:28;2.97;;;2.67;;
17451;SDS011;8843;48.838;9.324;2023-04-25T06:40:55;3.63;;;2.87;;
17451;SDS011;8843;48.838;9.324;2023-04-25T06:43:21;3.07;;;2.87;;
17451;SDS011;8843;48.838;9.324;2023-04-25T06:45:48;4.50;;;3.80;;
17451;SDS011;8843;48.838;9.324;2023-04-25T06:48:16;4.00;;;3.57;;
17451;SDS011;8843;48.838;9.324;2023-04-25T06:50:43;3.40;;;3.10;;
17451;SDS011;8843;48.838;9.324;2023-04-25T06:53:10;4.77;;;3.50;;
17451;SDS011;8843;48.838;9.324;2023-04-25T06:55:37;4.13;;;3.00;;
17451;SDS011;8843;48.838;9.324;2023-04-25T06:58:04;3.93;;;3.17;;
17451;SDS011;8843;48.838;9.324;2023-04-25T07:00:31;3.87;;;3.40;;
17451;SDS011;8843;48.838;9.324;2023-04-25T07:02:58;3.83;;;3.30;;
17451;SDS011;8843;48.838;9.324;2023-04-25T07:05:26;3.87;;;3.20;;
17451;SDS011;8843;48.838;9.324;2023-04-25T07:07:53;4.00;;;3.20;;
17451;SDS011;8843;48.838;9.324;2023-04-25T07:10:20;3.67;;;3.20;;
17451;SDS011;8843;48.838;9.324;2023-04-25T07:12:47;4.87;;;3.40;;
17451;SDS011;8843;48.838;9.324;2023-04-25T07:15:14;4.50;;;3.20;;
17451;SDS011;8843;48.838;9.324;2023-04-25T07:17:41;3.57;;;3.03;;
17451;SDS011;8843;48.838;9.324;2023-04-25T07:20:08;3.47;;;3.17;;
17451;SDS011;8843;48.838;9.324;2023-04-25T07:22:37;4.23;;;3.40;;
17451;SDS011;8843;48.838;9.324;2023-04-25T07:25:04;3.60;;;2.97;;
17451;SDS011;8843;48.838;9.324;2023-04-25T07:27:31;3.73;;;3.20;;
17451;SDS011;8843;48.838;9.324;2023-04-25T07:29:58;4.20;;;3.20;;
17451;SDS011;8843;48.838;9.324;2023-04-25T07:32:25;4.63;;;3.30;;
17451;SDS011;8843;48.838;9.324;2023-04-25T07:34:52;3.73;;;2.93;;
17451;SDS011;8843;48.838;9.324;2023-04-25T07:37:19;3.60;;;3.30;;
17451;SDS011;8843;48.838;9.324;2023-04-25T07:39:47;4.50;;;2.90;;
17451;SDS011;8843;48.838;9.324;2023-04-25T07:42:14;3.87;;;2.90;;
17451;SDS011;8843;48.838;9.324;2023-04-25T07:44:41;3.23;;;2.90;;
17451;SDS011;8843;48.838;9.324;2023-04-25T07:47:08;5.70;;;3.27;;
17451;SDS011;8843;48.838;9.324;2023-04-25T07:49:35;4.17;;;3.27;;
17451;SDS011;8843;48.838;9.324;2023-04-25T07:52:03;4.37;;;3.10;;
17451;SDS011;8843;48.838;9.324;2023-04-25T07:54:31;3.40;;;3.10;;
17451;SDS011;8843;48.838;9.324;2023-04-25T07:57:00;5.33;;;3.57;;
17451;SDS011;8843;48.838;9.324;2023-04-25T07:59:27;4.67;;;3.20;;
17451;SDS011;8843;48.838;9.324;2023-04-25T08:01:54;4.27;;;2.97;;
17451;SDS011;8843;48.838;9.324;2023-04-25T08:04:22;3.00;;;2.70;;
17451;SDS011;8843;48.838;9.324;2023-04-25T08:06:49;4.33;;;2.47;;
17451;SDS011;8843;48.838;9.324;2023-04-25T08:09:16;2.90;;;2.60;;
17451;SDS011;8843;48.838;9.324;2023-04-25T08:11:43;2.93;;;2.73;;
17451;SDS011;8843;48.838;9.324;2023-04-25T08:14:11;3.13;;;2.83;;
17451;SDS011;8843;48.838;9.324;2023-04-25T08:16:38;5.30;;;3.40;;
17451;SDS011;8843;48.838;9.324;2023-04-25T08:19:05;4.20;;;3.53;;
17451;SDS011;8843;48.838;9.324;2023-04-25T08:21:32;4.50;;;3.83;;
17451;SDS011;8843;48.838;9.324;2023-04-25T08:23:59;5.33;;;3.53;;
17451;SDS011;8843;48.838;9.324;2023-04-25T08:26:26;4.30;;;3.43;;
17451;SDS011;8843;48.838;9.324;2023-04-25T08:28:54;4.43;;;3.80;;
17451;SDS011;8843;48.838;9.324;2023-04-25T08:31:22;4.30;;;3.53;;
17451;SDS011;8843;48.838;9.324;2023-04-25T08:33:49;5.47;;;3.77;;
17451;SDS011;8843;48.838;9.324;2023-04-25T08:36:16;5.13;;;4.20;;
17451;SDS011;8843;48.838;9.324;2023-04-25T08:38:43;4.30;;;3.90;;
17451;SDS011;8843;48.838;9.324;2023-04-25T08:41:11;4.20;;;3.80;;
17451;SDS011;8843;48.838;9.324;2023-04-25T08:43:41;5.50;;;4.70;;
17451;SDS011;8843;48.838;9.324;2023-04-25T08:46:08;4.73;;;4.17;;
17451;SDS011;8843;48.838;9.324;2023-04-25T08:48:38;6.10;;;4.30;;
17451;SDS011;8843;48.838;9.324;2023-04-25T08:51:08;5.47;;;4.83;;
17451;SDS011;8843;48.838;9.324;2023-04-25T08:53:40;4.60;;;4.10;;
17451;SDS011;8843;48.838;9.324;2023-04-25T08:56:08;4.53;;;4.13;;
17451;SDS011;8843;48.838;9.324;2023-04-25T08:58:38;7.47;;;4.07;;
17451;SDS011;8843;48.838;9.324;2023-04-25T09:01:06;4.13;;;3.80;;
17451;SDS011;8843;48.838;9.324;2023-04-25T09:03:33;4.77;;;3.77;;
17451;SDS011;8843;48.838;9.324;2023-04-25T09:06:02;5.03;;;3.97;;
17451;SDS011;8843;48.838;9.324;2023-04-25T09:08:30;4.23;;;3.83;;
17451;SDS011;8843;48.838;9.324;2023-04-25T09:10:57;4.13;;;3.80;;
17451;SDS011;8843;48.838;9.324;2023-04-25T09:13:24;4.20;;;3.80;;
17451;SDS011;8843;48.838;9.324;2023-04-25T09:15:52;5.47;;;3.80;;
17451;SDS011;8843;48.838;9.324;2023-04-25T09:18:24;4.50;;;4.10;;
17451;SDS011;8843;48.838;9.324;2023-04-25T09:20:51;5.07;;;4.40;;
17451;SDS011;8843;48.838;9.324;2023-04-25T09:23:21;5.17;;;4.67;;
17451;SDS011;8843;48.838;9.324;2023-04-25T09:25:49;5.10;;;4.60;;
17451;SDS011;8843;48.838;9.324;2023-04-25T09:28:17;5.37;;;4.30;;
17451;SDS011;8843;48.838;9.324;2023-04-25T09:30:54;5.80;;;4.60;;
17451;SDS011;8843;48.838;9.324;2023-04-25T09:33:26;6.13;;;5.00;;
17451;SDS011;8843;48.838;9.324;2023-04-25T09:35:56;6.73;;;4.43;;
17451;SDS011;8843;48.838;9.324;2023-04-25T09:38:31;4.83;;;4.00;;
17451;SDS011;8843;48.838;9.324;2023-04-25T09:40:59;4.30;;;3.90;;
17451;SDS011;8843;48.838;9.324;2023-04-25T09:43:26;3.93;;;3.57;;
17451;SDS011;8843;48.838;9.324;2023-04-25T09:45:54;3.40;;;3.10;;
17451;SDS011;8843;48.838;9.324;2023-04-25T09:48:24;5.50;;;3.73;;
17451;SDS011;8843;48.838;9.324;2023-04-25T09:51:03;3.87;;;3.47;;
17451;SDS011;8843;48.838;9.324;2023-04-25T09:53:33;3.40;;;3.10;;
17451;SDS011;8843;48.838;9.324;2023-04-25T09:56:00;3.33;;;2.90;;
17451;SDS011;8843;48.838;9.324;2023-04-25T09:58:30;4.53;;;3.60;;
17451;SDS011;8843;48.838;9.324;2023-04-25T10:00:59;9.97;;;3.57;;
17451;SDS011;8843;48.838;9.324;2023-04-25T10:03:27;3.80;;;3.50;;
17451;SDS011;8843;48.838;9.324;2023-04-25T10:05:56;3.83;;;3.43;;
17451;SDS011;8843;48.838;9.324;2023-04-25T10:08:25;3.87;;;3.57;;
17451;SDS011;8843;48.838;9.324;2023-04-25T10:10:58;3.80;;;3.50;;
17451;SDS011;8843;48.838;9.324;2023-04-25T10:13:27;3.37;;;3.07;;
17451;SDS011;8843;48.838;9.324;2023-04-25T10:15:55;4.13;;;3.60;;
17451;SDS011;8843;48.838;9.324;2023-04-25T10:18:24;5.70;;;3.53;;
17451;SDS011;8843;48.838;9.324;2023-04-25T10:20:52;4.53;;;3.23;;
17451;SDS011;8843;48.838;9.324;2023-04-25T10:23:20;2.73;;;2.53;;
17451;SDS011;8843;48.838;9.324;2023-04-25T10:25:48;2.90;;;2.70;;
17451;SDS011;8843;48.838;9.324;2023-04-25T10:28:18;3.23;;;2.13;;
17451;SDS011;8843;48.838;9.324;2023-04-25T10:33:34;2.83;;;2.20;;
17451;SDS011;8843;48.838;9.324;2023-04-25T10:36:08;2.43;;;2.23;;
17451;SDS011;8843;48.838;9.324;2023-04-25T10:38:36;3.10;;;2.80;;
17451;SDS011;8843;48.838;9.324;2023-04-25T10:41:04;3.20;;;2.60;;
17451;SDS011;8843;48.838;9.324;2023-04-25T10:43:35;3.57;;;2.93;;
17451;SDS011;8843;48.838;9.324;2023-04-25T10:46:12;2.90;;;2.60;;
17451;SDS011;8843;48.838;9.324;2023-04-25T10:48:44;3.67;;;2.80;;
17451;SDS011;8843;48.838;9.324;2023-04-25T10:51:18;3.20;;;2.90;;
17451;SDS011;8843;48.838;9.324;2023-04-25T10:53:47;4.40;;;2.87;;
17451;SDS011;8843;48.838;9.324;2023-04-25T10:56:25;3.07;;;2.77;;
17451;SDS011;8843;48.838;9.324;2023-04-25T10:59:03;3.30;;;2.90;;
17451;SDS011;8843;48.838;9.324;2023-04-25T11:01:35;3.73;;;2.90;;
17451;SDS011;8843;48.838;9.324;2023-04-25T11:04:04;3.27;;;2.87;;
17451;SDS011;8843;48.838;9.324;2023-04-25T11:06:34;3.57;;;2.87;;
17451;SDS011;8843;48.838;9.324;2023-04-25T11:09:10;3.83;;;2.70;;
17451;SDS011;8843;48.838;9.324;2023-04-25T11:11:39;3.07;;;2.80;;
17451;SDS011;8843;48.838;9.324;2023-04-25T11:14:07;3.33;;;2.87;;
17451;SDS011;8843;48.838;9.324;2023-04-25T11:16:34;3.40;;;2.60;;
17451;SDS011;8843;48.838;9.324;2023-04-25T11:19:01;3.13;;;2.80;;
17451;SDS011;8843;48.838;9.324;2023-04-25T11:21:29;3.90;;;3.27;;
17451;SDS011;8843;48.838;9.324;2023-04-25T11:23:57;3.47;;;3.17;;
17451;SDS011;8843;48.838;9.324;2023-04-25T11:26:25;3.57;;;3.20;;
17451;SDS011;8843;48.838;9.324;2023-04-25T11:28:56;4.90;;;3.10;;
17451;SDS011;8843;48.838;9.324;2023-04-25T11:31:26;3.17;;;2.90;;
17451;SDS011;8843;48.838;9.324;2023-04-25T11:33:53;3.40;;;3.10;;
17451;SDS011;8843;48.838;9.324;2023-04-25T11:36:20;3.20;;;3.00;;
17451;SDS011;8843;48.838;9.324;2023-04-25T11:38:48;3.33;;;3.03;;
17451;SDS011;8843;48.838;9.324;2023-04-25T11:41:16;2.50;;;2.20;;
17451;SDS011;8843;48.838;9.324;2023-04-25T11:43:43;3.20;;;2.90;;
17451;SDS011;8843;48.838;9.324;2023-04-25T11:46:10;3.20;;;2.90;;
17451;SDS011;8843;48.838;9.324;2023-04-25T11:48:39;3.43;;;2.80;;
17451;SDS011;8843;48.838;9.324;2023-04-25T11:51:07;5.70;;;3.53;;
17451;SDS011;8843;48.838;9.324;2023-04-25T11:53:34;4.07;;;3.57;;
17451;SDS011;8843;48.838;9.324;2023-04-25T11:56:01;3.60;;;3.30;;
17451;SDS011;8843;48.838;9.324;2023-04-25T12:01:26;3.43;;;3.13;;
17451;SDS011;8843;48.838;9.324;2023-04-25T12:03:56;3.37;;;3.07;;
17451;SDS011;8843;48.838;9.324;2023-04-25T12:06:25;3.07;;;2.80;;
17451;SDS011;8843;48.838;9.324;2023-04-25T12:09:02;2.63;;;2.43;;
17451;SDS011;8843;48.838;9.324;2023-04-25T12:11:30;5.00;;;2.47;;
17451;SDS011;8843;48.838;9.324;2023-04-25T12:14:01;4.03;;;2.87;;
17451;SDS011;8843;48.838;9.324;2023-04-25T12:16:29;2.63;;;2.43;;
17451;SDS011;8843;48.838;9.324;2023-04-25T12:19:07;4.60;;;2.87;;
17451;SDS011;8843;48.838;9.324;2023-04-25T12:21:34;12.70;;;3.67;;
17451;SDS011;8843;48.838;9.324;2023-04-25T12:24:10;3.17;;;2.97;;
17451;SDS011;8843;48.838;9.324;2023-04-25T12:26:45;3.27;;;2.97;;
17451;SDS011;8843;48.838;9.324;2023-04-25T12:29:15;3.33;;;2.73;;
17451;SDS011;8843;48.838;9.324;2023-04-25T12:31:42;3.53;;;2.63;;
17451;SDS011;8843;48.838;9.324;2023-04-25T12:34:11;3.10;;;2.80;;
17451;SDS011;8843;48.838;9.324;2023-04-25T12:36:38;3.57;;;3.27;;
17451;SDS011;8843;48.838;9.324;2023-04-25T12:39:05;4.30;;;3.30;;
17451;SDS011;8843;48.838;9.324;2023-04-25T12:41:33;3.80;;;3.33;;
17451;SDS011;8843;48.838;9.324;2023-04-25T12:44:00;4.27;;;3.10;;
17451;SDS011;8843;48.838;9.324;2023-04-25T12:46:26;3.80;;;2.83;;
17451;SDS011;8843;48.838;9.324;2023-04-25T12:48:53;4.87;;;3.20;;
17451;SDS011;8843;48.838;9.324;2023-04-25T12:51:23;5.87;;;3.77;;
17451;SDS011;8843;48.838;9.324;2023-04-25T12:53:51;3.90;;;3.50;;
17451;SDS011;8843;48.838;9.324;2023-04-25T12:56:18;5.27;;;3.37;;
17451;SDS011;8843;48.838;9.324;2023-04-25T12:58:45;5.93;;;4.40;;
17451;SDS011;8843;48.838;9.324;2023-04-25T13:01:13;5.37;;;4.63;;
17451;SDS011;8843;48.838;9.324;2023-04-25T13:03:40;6.87;;;4.80;;
17451;SDS011;8843;48.838;9.324;2023-04-25T13:06:07;6.13;;;4.93;;
17451;SDS011;8843;48.838;9.324;2023-04-25T13:08:35;5.43;;;4.43;;
17451;SDS011;8843;48.838;9.324;2023-04-25T13:11:03;5.47;;;3.80;;
17451;SDS011;8843;48.838;9.324;2023-04-25T13:13:30;5.23;;;4.40;;
17451;SDS011;8843;48.838;9.324;2023-04-25T13:15:59;6.23;;;4.57;;
17451;SDS011;8843;48.838;9.324;2023-04-25T13:18:26;5.10;;;4.13;;
17451;SDS011;8843;48.838;9.324;2023-04-25T13:20:53;10.10;;;4.47;;
17451;SDS011;8843;48.838;9.324;2023-04-25T13:23:21;5.30;;;4.47;;
17451;SDS011;8843;48.838;9.324;2023-04-25T13:25:49;8.93;;;6.10;;
17451;SDS011;8843;48.838;9.324;2023-04-25T13:28:16;7.27;;;5.53;;
17451;SDS011;8843;48.838;9.324;2023-04-25T13:30:43;6.80;;;6.10;;
17451;SDS011;8843;48.838;9.324;2023-04-25T13:33:10;7.93;;;6.13;;
17451;SDS011;8843;48.838;9.324;2023-04-25T13:35:37;6.73;;;5.13;;
17451;SDS011;8843;48.838;9.324;2023-04-25T13:38:05;6.43;;;5.27;;
17451;SDS011;8843;48.838;9.324;2023-04-25T13:40:32;9.23;;;5.13;;
17451;SDS011;8843;48.838;9.324;2023-04-25T13:43:00;6.50;;;5.60;;
17451;SDS011;8843;48.838;9.324;2023-04-25T13:45:27;7.03;;;5.40;;
17451;SDS011;8843;48.838;9.324;2023-04-25T13:47:54;8.17;;;5.97;;
17451;SDS011;8843;48.838;9.324;2023-04-25T13:50:21;6.60;;;5.23;;
17451;SDS011;8843;48.838;9.324;2023-04-25T13:52:48;6.50;;;5.80;;
17451;SDS011;8843;48.838;9.324;2023-04-25T13:55:15;6.93;;;5.23;;
17451;SDS011;8843;48.838;9.324;2023-04-25T13:57:42;6.80;;;6.17;;
17451;SDS011;8843;48.838;9.324;2023-04-25T14:00:11;8.23;;;5.50;;
17451;SDS011;8843;48.838;9.324;2023-04-25T14:02:38;7.20;;;6.50;;
17451;SDS011;8843;48.838;9.324;2023-04-25T14:05:05;9.63;;;7.40;;
17451;SDS011;8843;48.838;9.324;2023-04-25T14:07:34;10.13;;;7.37;;
17451;SDS011;8843;48.838;9.324;2023-04-25T14:10:01;10.73;;;7.63;;
17451;SDS011;8843;48.838;9.324;2023-04-25T14:12:29;9.80;;;7.63;;
17451;SDS011;8843;48.838;9.324;2023-04-25T14:14:56;10.07;;;8.20;;
17451;SDS011;8843;48.838;9.324;2023-04-25T14:17:24;12.57;;;7.90;;
17451;SDS011;8843;48.838;9.324;2023-04-25T14:19:51;8.60;;;7.43;;
17451;SDS011;8843;48.838;9.324;2023-04-25T14:22:18;9.47;;;6.93;;
17451;SDS011;8843;48.838;9.324;2023-04-25T14:24:45;9.13;;;6.37;;
17451;SDS011;8843;48.838;9.324;2023-04-25T14:27:12;10.57;;;6.67;;
17451;SDS011;8843;48.838;9.324;2023-04-25T14:29:39;9.77;;;6.67;;
17451;SDS011;8843;48.838;9.324;2023-04-25T14:32:06;10.83;;;6.63;;
17451;SDS011;8843;48.838;9.324;2023-04-25T14:34:35;8.53;;;6.80;;
17451;SDS011;8843;48.838;9.324;2023-04-25T14:37:02;7.33;;;6.50;;
17451;SDS011;8843;48.838;9.324;2023-04-25T14:39:28;8.07;;;6.27;;
17451;SDS011;8843;48.838;9.324;2023-04-25T14:41:55;9.57;;;6.37;;
17451;SDS011;8843;48.838;9.324;2023-04-25T14:44:22;7.33;;;6.40;;
17451;SDS011;8843;48.838;9.324;2023-04-25T14:46:49;9.23;;;6.13;;
17451;SDS011;8843;48.838;9.324;2023-04-25T14:49:17;7.27;;;6.27;;
17451;SDS011;8843;48.838;9.324;2023-04-25T14:51:45;8.17;;;6.47;;
17451;SDS011;8843;48.838;9.324;2023-04-25T14:54:12;8.70;;;6.60;;
17451;SDS011;8843;48.838;9.324;2023-04-25T14:56:39;7.60;;;6.07;;
17451;SDS011;8843;48.838;9.324;2023-04-25T14:59:06;7.37;;;6.00;;
17451;SDS011;8843;48.838;9.324;2023-04-25T15:01:32;7.63;;;6.20;;
17451;SDS011;8843;48.838;9.324;2023-04-25T15:04:00;6.93;;;6.23;;
17451;SDS011;8843;48.838;9.324;2023-04-25T15:06:26;8.03;;;5.60;;
17451;SDS011;8843;48.838;9.324;2023-04-25T15:08:56;6.23;;;4.90;;